Portada
METAR-TAF:

METAR-TAF

Aeropuertos :

Aeropuerto de Logroño-Agoncillo

Logroño, España

latitud: 42-27N, longitud: 002-20W, altitud: 353 m

Observación

El informe se hizo hace 44 minutos, a las 22:30 UTC
Viento 2 kt con dirección variable
Temperatura 5°C
Humedad 100%
Presión 1014 hPa
Visibilidad: 8000 m
Cielo cubierto a una altura de 300 ft
lluvia ligera

METAR: LELO 312230Z AUTO VRB02KT 8000 -RA OVC003 05/05 Q1014

Hora: 01:14 (23:14 UTC)

Pronóstico

El informe se hizo hace 6 horas y 14 minutos, a las 17:00 UTC
Pronóstico válido del 31 a las 18 UTC al 01 a las 03 UTC
Viento 10 kt del este
Visibilidad 10 km o más
Nubes dispersas a una altura de 800 ft
Cielo nuboso a una altura de 1200 ft
Temporalmente
del 31 a las 18 UTC al 01 a las 03 UTC
Visibilidad: 4000 m
Cielo nuboso a una altura de 900 ft
lluvia

TAF: LELO 311700Z 3118/0103 10010KT 9999 SCT008 BKN012 TEMPO 3118/0103 4000 RA BKN009

Observaciones y pronósticos meteorológicos de más de 4000 aeropuertos (mensajes METAR y TAF).

Los puntos amarillos y rojos representan las estaciones disponibles.

Ponga el ratón en el punto deseado para ver el nombre de la estación.

Haga clic para ver las observaciones y los pronósticos meteorológicos.

Para cambiar el mapa : haga clic en los botones verdes con una cruz de color negro para hacer un zoom, en el botón verde con un guión para alejar o en las flechas verdes para mapas adyacentes.


METAR-TAF: